createdAt,value
2018-08-10T00:00:52.719Z,99.90
2018-08-10T00:03:20.823Z,99.90
2018-08-10T00:05:49.008Z,99.90
2018-08-10T00:08:17.882Z,99.90
2018-08-10T00:10:46.375Z,99.90
2018-08-10T00:13:14.651Z,99.90
2018-08-10T00:15:42.975Z,99.90
2018-08-10T00:18:12.101Z,99.90
2018-08-10T00:20:40.249Z,99.90
2018-08-10T00:23:11.415Z,99.90
2018-08-10T00:25:39.558Z,99.90
2018-08-10T00:28:07.669Z,99.90
2018-08-10T00:30:36.444Z,99.90
2018-08-10T00:33:04.568Z,99.90
2018-08-10T00:35:32.677Z,99.90
2018-08-10T00:38:00.842Z,99.90
2018-08-10T00:40:28.977Z,99.90
2018-08-10T00:42:57.133Z,99.90
2018-08-10T00:45:25.296Z,99.90
2018-08-10T00:47:53.592Z,99.90
2018-08-10T00:50:22.019Z,99.90
2018-08-10T00:52:50.309Z,99.90
2018-08-10T00:55:19.428Z,99.90
2018-08-10T00:57:48.402Z,99.90
2018-08-10T01:00:20.836Z,99.90
2018-08-10T01:02:49.350Z,99.90
2018-08-10T01:05:17.667Z,99.90
2018-08-10T01:07:46.033Z,99.90
2018-08-10T01:10:16.144Z,99.80
2018-08-10T01:12:44.301Z,99.90
2018-08-10T01:15:14.237Z,99.90
2018-08-10T01:17:42.646Z,99.80
2018-08-10T01:20:13.179Z,99.80
2018-08-10T01:22:44.494Z,99.90
2018-08-10T01:25:13.010Z,99.90
2018-08-10T01:27:46.670Z,99.90
2018-08-10T01:30:14.952Z,99.80
2018-08-10T01:32:43.745Z,99.90
2018-08-10T01:35:11.885Z,99.80
2018-08-10T01:37:39.984Z,99.90
2018-08-10T01:40:47.666Z,99.90
2018-08-10T01:43:15.848Z,99.90
2018-08-10T01:45:43.949Z,99.90
2018-08-10T01:48:12.102Z,99.90
2018-08-10T01:50:40.197Z,99.90
2018-08-10T01:53:08.373Z,99.40
2018-08-10T01:55:36.477Z,99.70
2018-08-10T01:58:04.605Z,99.60
2018-08-10T02:00:32.772Z,99.90
2018-08-10T02:03:00.920Z,99.30
2018-08-10T02:05:29.065Z,99.50
2018-08-10T02:07:57.196Z,99.50
2018-08-10T02:10:25.343Z,99.40
2018-08-10T02:12:55.364Z,99.10
2018-08-10T02:15:23.499Z,99.90
2018-08-10T02:17:51.685Z,99.60
2018-08-10T02:20:21.290Z,99.60
2018-08-10T02:22:49.491Z,99.80
2018-08-10T02:25:19.077Z,99.70
2018-08-10T02:27:48.172Z,99.30
2018-08-10T02:30:17.748Z,99.10
2018-08-10T02:32:46.849Z,99.60
2018-08-10T02:35:15.018Z,99.30
2018-08-10T02:37:43.178Z,99.40
2018-08-10T02:40:13.697Z,99.50
2018-08-10T02:42:42.503Z,99.90
2018-08-10T02:45:10.904Z,99.50
2018-08-10T02:47:39.004Z,99.60
2018-08-10T02:50:07.152Z,99.40
2018-08-10T02:52:35.299Z,99.70
2018-08-10T02:55:03.692Z,99.40
2018-08-10T02:57:31.777Z,99.60
2018-08-10T02:59:59.884Z,99.70
2018-08-10T03:02:28.005Z,99.90
2018-08-10T03:04:56.133Z,99.90
2018-08-10T03:07:24.261Z,99.80
2018-08-10T03:09:52.408Z,99.70
2018-08-10T03:12:20.599Z,99.80
2018-08-10T03:14:48.825Z,99.90
2018-08-10T03:17:17.198Z,99.90
2018-08-10T03:19:45.313Z,99.80
2018-08-10T03:22:13.507Z,99.90
2018-08-10T03:24:41.581Z,99.90
2018-08-10T03:27:09.770Z,99.70
2018-08-10T03:29:37.907Z,99.90
2018-08-10T03:32:06.105Z,99.90
2018-08-10T03:34:34.244Z,99.90
2018-08-10T03:37:02.356Z,99.30
2018-08-10T03:39:30.497Z,99.90
2018-08-10T03:41:58.608Z,99.70
2018-08-10T03:44:26.745Z,99.40
2018-08-10T03:46:54.896Z,99.60
2018-08-10T03:49:23.029Z,99.70
2018-08-10T03:51:51.183Z,99.80
2018-08-10T03:54:19.345Z,99.80
2018-08-10T03:56:47.551Z,99.90
2018-08-10T03:59:15.665Z,99.90
2018-08-10T04:01:43.838Z,99.90
2018-08-10T04:04:11.965Z,99.90
2018-08-10T04:06:40.080Z,99.90
2018-08-10T04:09:09.786Z,99.90
2018-08-10T04:11:37.971Z,99.90
2018-08-10T04:14:06.173Z,99.90
2018-08-10T04:16:34.300Z,99.90
2018-08-10T04:19:02.428Z,99.90
2018-08-10T04:21:30.598Z,99.80
2018-08-10T04:23:58.700Z,99.90
2018-08-10T04:26:26.840Z,99.90
2018-08-10T04:28:55.113Z,99.90
2018-08-10T04:31:23.297Z,99.90
2018-08-10T04:33:51.567Z,99.90
2018-08-10T04:36:19.737Z,99.90
2018-08-10T04:38:47.976Z,99.80
2018-08-10T04:41:16.203Z,99.80
2018-08-10T04:43:44.530Z,99.70
2018-08-10T04:46:12.865Z,99.60
2018-08-10T04:48:41.012Z,99.20
2018-08-10T04:51:09.116Z,99.10
2018-08-10T04:53:37.256Z,99.50
2018-08-10T04:56:05.749Z,99.30
2018-08-10T04:58:33.880Z,99.30
2018-08-10T05:01:01.985Z,99.10
2018-08-10T05:03:30.169Z,98.60
2018-08-10T05:05:58.295Z,99.90
2018-08-10T05:08:26.424Z,98.10
2018-08-10T05:10:54.596Z,97.60
2018-08-10T05:13:22.847Z,98.30
2018-08-10T05:15:51.201Z,98.20
2018-08-10T05:18:19.308Z,98.10
2018-08-10T05:20:47.582Z,98.10
2018-08-10T05:23:15.815Z,98.20
2018-08-10T05:25:43.947Z,98.10
2018-08-10T05:28:12.068Z,98.50
2018-08-10T05:30:40.198Z,98.30
2018-08-10T05:33:08.325Z,98.10
2018-08-10T05:35:36.456Z,97.90
2018-08-10T05:38:04.561Z,98.10
2018-08-10T05:40:32.666Z,97.90
2018-08-10T05:43:00.873Z,97.80
2018-08-10T05:45:29.032Z,98.00
2018-08-10T05:47:57.269Z,98.50
2018-08-10T05:50:25.357Z,97.80
2018-08-10T05:52:53.517Z,97.50
2018-08-10T05:55:21.755Z,97.60
2018-08-10T05:57:49.892Z,98.00
2018-08-10T06:00:18.162Z,98.00
2018-08-10T06:02:46.420Z,97.70
2018-08-10T06:05:14.544Z,97.90
2018-08-10T06:07:42.693Z,97.90
2018-08-10T06:10:11.081Z,98.20
2018-08-10T06:12:39.411Z,98.10
2018-08-10T06:15:08.649Z,98.20
2018-08-10T06:17:36.750Z,98.60
2018-08-10T06:20:06.305Z,98.30
2018-08-10T06:22:34.393Z,97.80
2018-08-10T06:25:02.638Z,97.80
2018-08-10T06:27:30.685Z,97.80
2018-08-10T06:29:58.773Z,98.70
2018-08-10T06:32:26.936Z,98.30
2018-08-10T06:34:55.144Z,98.00
2018-08-10T06:37:23.295Z,98.50
2018-08-10T06:39:51.731Z,98.00
2018-08-10T06:42:20.088Z,98.30
2018-08-10T06:44:48.322Z,97.90
2018-08-10T06:47:16.528Z,97.80
2018-08-10T06:49:44.632Z,97.50
2018-08-10T06:52:12.718Z,97.90
2018-08-10T06:54:40.837Z,97.10
2018-08-10T06:57:08.965Z,96.90
2018-08-10T06:59:37.096Z,97.10
2018-08-10T07:02:05.480Z,96.70
2018-08-10T07:04:33.605Z,96.90
2018-08-10T07:07:01.781Z,96.80
2018-08-10T07:09:29.921Z,96.60
2018-08-10T07:11:58.064Z,97.10
2018-08-10T07:14:26.160Z,97.00
2018-08-10T07:16:54.282Z,96.70
2018-08-10T07:19:22.621Z,96.70
2018-08-10T07:21:50.854Z,96.80
2018-08-10T07:24:20.296Z,96.70
2018-08-10T07:26:48.480Z,96.10
2018-08-10T07:29:16.806Z,95.90
2018-08-10T07:31:44.923Z,95.90
2018-08-10T07:34:13.072Z,95.60
2018-08-10T07:36:41.233Z,94.60
2018-08-10T07:39:10.538Z,95.00
2018-08-10T07:41:38.697Z,97.70
2018-08-10T07:44:07.128Z,95.20
2018-08-10T07:46:35.420Z,95.00
2018-08-10T07:49:03.453Z,95.40
2018-08-10T07:51:31.602Z,95.10
2018-08-10T07:53:59.743Z,94.90
2018-08-10T07:56:27.863Z,95.20
2018-08-10T07:58:55.974Z,95.30
2018-08-10T08:01:24.115Z,95.30
2018-08-10T08:03:52.267Z,96.40
2018-08-10T08:06:20.491Z,94.30
2018-08-10T08:08:48.845Z,94.70
2018-08-10T08:11:17.059Z,94.30
2018-08-10T08:13:45.350Z,93.50
2018-08-10T08:16:13.430Z,94.00
2018-08-10T08:18:41.536Z,93.30
2018-08-10T08:21:10.960Z,93.90
2018-08-10T08:23:39.104Z,94.00
2018-08-10T08:26:07.241Z,93.60
2018-08-10T08:28:35.684Z,93.00
2018-08-10T08:31:04.437Z,99.90
2018-08-10T08:33:32.619Z,93.20
2018-08-10T08:36:01.813Z,93.00
2018-08-10T08:38:41.461Z,92.90
2018-08-10T08:41:10.283Z,92.60
2018-08-10T08:45:53.095Z,92.70
2018-08-10T08:48:21.469Z,92.60
2018-08-10T08:50:51.182Z,93.20
2018-08-10T08:53:19.357Z,93.30
2018-08-10T08:55:53.860Z,92.70
2018-08-10T08:58:22.501Z,92.00
2018-08-10T09:00:50.653Z,94.50
2018-08-10T09:03:30.945Z,91.60
2018-08-10T09:05:59.656Z,90.80
2018-08-10T09:08:27.773Z,91.00
2018-08-10T09:10:57.249Z,90.60
2018-08-10T09:13:25.912Z,90.50
2018-08-10T09:15:54.141Z,90.40
2018-08-10T09:18:22.526Z,90.60
2018-08-10T09:20:50.682Z,90.80
2018-08-10T09:23:18.904Z,90.30
2018-08-10T09:25:47.198Z,91.30
2018-08-10T09:28:15.303Z,90.40
2018-08-10T09:30:43.405Z,90.30
2018-08-10T09:33:11.572Z,89.60
2018-08-10T09:35:39.685Z,90.20
2018-08-10T09:38:07.869Z,90.20
2018-08-10T09:40:35.978Z,90.00
2018-08-10T09:43:04.085Z,89.70
2018-08-10T09:45:32.185Z,88.90
2018-08-10T09:48:00.297Z,90.10
2018-08-10T09:50:28.380Z,90.00
2018-08-10T09:52:58.793Z,90.60
2018-08-10T09:55:37.505Z,90.20
2018-08-10T09:58:08.340Z,90.80
2018-08-10T10:00:42.048Z,90.80
2018-08-10T10:03:31.685Z,91.80
2018-08-10T10:06:00.689Z,88.60
2018-08-10T10:08:28.837Z,87.70
2018-08-10T10:10:56.968Z,89.00
2018-08-10T10:13:25.098Z,88.40
2018-08-10T10:15:53.225Z,86.60
2018-08-10T10:18:21.398Z,86.10
2018-08-10T10:20:49.905Z,86.50
2018-08-10T10:23:18.128Z,86.60
2018-08-10T10:25:46.490Z,87.40
2018-08-10T10:28:14.717Z,84.90
2018-08-10T10:30:42.858Z,84.00
2018-08-10T10:33:10.949Z,84.70
2018-08-10T10:35:39.071Z,90.80
2018-08-10T10:38:07.252Z,88.70
2018-08-10T10:40:35.389Z,86.20
2018-08-10T10:43:03.532Z,83.60
2018-08-10T10:45:31.668Z,84.90
2018-08-10T10:47:59.825Z,83.70
2018-08-10T10:50:27.952Z,85.00
2018-08-10T10:52:56.098Z,85.00
2018-08-10T10:55:24.345Z,85.50
2018-08-10T10:57:52.508Z,84.70
2018-08-10T11:00:21.328Z,85.00
2018-08-10T11:02:50.009Z,84.80
2018-08-10T11:05:18.542Z,85.60
2018-08-10T11:07:46.689Z,85.20
2018-08-10T11:10:16.235Z,83.30
2018-08-10T11:12:44.412Z,83.70
2018-08-10T11:15:12.916Z,84.00
2018-08-10T11:17:41.027Z,83.00
2018-08-10T11:20:10.579Z,83.10
2018-08-10T11:22:39.485Z,83.60
2018-08-10T11:25:08.825Z,82.20
2018-08-10T11:27:36.913Z,82.50
2018-08-10T11:30:06.244Z,82.70
2018-08-10T11:32:34.297Z,82.40
2018-08-10T11:35:02.449Z,79.50
2018-08-10T11:37:30.592Z,80.20
2018-08-10T11:39:58.700Z,81.70
2018-08-10T11:42:26.824Z,79.20
2018-08-10T11:44:55.071Z,79.30
2018-08-10T11:47:23.136Z,78.50
2018-08-10T11:49:51.262Z,79.00
2018-08-10T11:52:19.445Z,79.10
2018-08-10T11:54:47.648Z,78.40
2018-08-10T11:57:15.865Z,79.50
2018-08-10T11:59:43.971Z,77.60
2018-08-10T12:02:12.098Z,89.70
2018-08-10T12:04:40.227Z,77.90
2018-08-10T12:07:08.374Z,91.80
2018-08-10T12:09:36.500Z,91.80
2018-08-10T12:12:04.724Z,92.50
2018-08-10T12:14:32.845Z,80.90
2018-08-10T12:17:01.025Z,84.80
2018-08-10T12:19:29.163Z,85.20
2018-08-10T12:21:57.417Z,75.40
2018-08-10T12:24:25.631Z,77.20
2018-08-10T12:26:54.233Z,94.40
2018-08-10T12:29:22.429Z,94.60
2018-08-10T12:31:50.593Z,92.70
2018-08-10T12:34:18.866Z,91.60
2018-08-10T12:36:47.129Z,92.40
2018-08-10T12:39:15.350Z,85.00
2018-08-10T12:41:43.477Z,81.70
2018-08-10T12:44:11.820Z,95.40
2018-08-10T12:46:40.096Z,95.00
2018-08-10T12:49:08.576Z,94.70
2018-08-10T12:51:36.789Z,96.10
2018-08-10T12:54:04.896Z,84.10
2018-08-10T12:56:33.014Z,95.60
2018-08-10T12:59:01.412Z,90.70
2018-08-10T13:01:29.597Z,88.80
2018-08-10T13:03:57.767Z,83.60
2018-08-10T13:06:25.893Z,93.90
2018-08-10T13:08:55.372Z,94.40
2018-08-10T13:11:23.667Z,75.00
2018-08-10T13:13:51.827Z,71.00
2018-08-10T13:16:20.380Z,79.60
2018-08-10T13:18:48.940Z,71.90
2018-08-10T13:21:17.159Z,69.20
2018-08-10T13:23:45.367Z,91.40
2018-08-10T13:26:13.464Z,75.00
2018-08-10T13:28:41.632Z,92.70
2018-08-10T13:31:09.752Z,67.70
2018-08-10T13:33:37.863Z,71.70
2018-08-10T13:36:06.377Z,91.70
2018-08-10T13:38:34.518Z,82.50
2018-08-10T13:41:02.681Z,80.50
2018-08-10T13:43:30.777Z,71.80
2018-08-10T13:45:58.924Z,84.60
2018-08-10T13:48:27.055Z,85.10
2018-08-10T13:50:55.224Z,71.30
2018-08-10T13:53:23.475Z,65.60
2018-08-10T13:55:51.640Z,92.40
2018-08-10T13:58:19.856Z,92.20
2018-08-10T14:00:48.113Z,66.00
2018-08-10T14:03:16.430Z,90.40
2018-08-10T14:05:44.596Z,87.60
2018-08-10T14:08:12.700Z,73.50
2018-08-10T14:10:40.816Z,67.10
2018-08-10T14:13:08.975Z,71.60
2018-08-10T14:15:37.105Z,68.90
2018-08-10T14:18:05.208Z,66.40
2018-08-10T14:20:33.292Z,67.70
2018-08-10T14:23:01.394Z,70.30
2018-08-10T14:25:29.525Z,82.90
2018-08-10T14:27:57.707Z,92.30
2018-08-10T14:30:25.810Z,87.00
2018-08-10T14:32:54.067Z,89.90
2018-08-10T14:35:22.416Z,87.80
2018-08-10T14:37:50.529Z,90.00
2018-08-10T14:40:18.801Z,90.40
2018-08-10T14:42:47.272Z,76.90
2018-08-10T14:45:16.388Z,71.10
2018-08-10T14:47:44.628Z,79.10
2018-08-10T14:50:13.821Z,78.90
2018-08-10T14:52:41.984Z,85.10
2018-08-10T14:55:13.160Z,79.60
2018-08-10T14:57:41.354Z,90.90
2018-08-10T15:00:12.693Z,78.60
2018-08-10T15:02:40.853Z,75.10
2018-08-10T15:05:09.914Z,92.20
2018-08-10T15:07:38.130Z,72.80
2018-08-10T15:10:08.228Z,73.50
2018-08-10T15:12:36.616Z,77.80
2018-08-10T15:15:04.992Z,70.60
2018-08-10T15:17:33.104Z,88.20
2018-08-10T15:20:01.265Z,89.70
2018-08-10T15:22:29.462Z,73.80
2018-08-10T15:24:57.703Z,91.90
2018-08-10T15:27:25.856Z,69.80
2018-08-10T15:29:54.112Z,68.60
2018-08-10T15:32:22.273Z,67.70
2018-08-10T15:34:50.481Z,89.80
2018-08-10T15:37:18.905Z,72.90
2018-08-10T15:39:47.178Z,70.20
2018-08-10T15:42:15.350Z,72.40
2018-08-10T15:44:43.452Z,92.30
2018-08-10T15:47:11.608Z,92.80
2018-08-10T15:49:39.813Z,91.90
2018-08-10T15:52:07.934Z,92.20
2018-08-10T15:54:36.146Z,93.40
2018-08-10T15:57:04.283Z,93.70
2018-08-10T15:59:32.465Z,93.80
2018-08-10T16:02:00.658Z,90.60
2018-08-10T16:04:28.720Z,91.80
2018-08-10T16:06:56.837Z,94.00
2018-08-10T16:09:24.964Z,91.60
2018-08-10T16:11:53.223Z,86.60
2018-08-10T16:14:21.465Z,92.40
2018-08-10T16:16:49.748Z,92.90
2018-08-10T16:19:18.088Z,92.90
2018-08-10T16:21:46.371Z,82.10
2018-08-10T16:24:14.511Z,85.10
2018-08-10T16:26:42.653Z,87.90
2018-08-10T16:29:10.769Z,93.70
2018-08-10T16:31:38.894Z,88.80
2018-08-10T16:34:07.308Z,93.50
2018-08-10T16:36:35.449Z,88.00
2018-08-10T16:39:05.253Z,86.60
2018-08-10T16:41:33.364Z,93.40
2018-08-10T16:44:01.529Z,83.50
2018-08-10T16:46:29.829Z,81.60
2018-08-10T16:48:57.968Z,93.30
2018-08-10T16:51:26.077Z,91.10
2018-08-10T16:53:54.235Z,93.30
2018-08-10T16:56:22.520Z,93.70
2018-08-10T16:58:50.766Z,84.20
2018-08-10T17:01:18.916Z,80.90
2018-08-10T17:03:47.879Z,81.70
2018-08-10T17:06:16.062Z,79.70
2018-08-10T17:08:44.215Z,80.30
2018-08-10T17:11:12.426Z,79.50
2018-08-10T17:13:40.618Z,81.60
2018-08-10T17:16:08.849Z,81.20
2018-08-10T17:18:36.961Z,80.50
2018-08-10T17:21:05.081Z,81.30
2018-08-10T17:23:33.234Z,79.70
2018-08-10T17:26:01.374Z,80.70
2018-08-10T17:28:29.476Z,80.10
2018-08-10T17:30:57.629Z,81.80
2018-08-10T17:33:25.839Z,79.80
2018-08-10T17:35:54.065Z,81.10
2018-08-10T17:38:22.365Z,83.10
2018-08-10T17:40:50.551Z,80.60
2018-08-10T17:43:18.762Z,80.50
2018-08-10T17:45:46.982Z,81.30
2018-08-10T17:48:15.098Z,82.30
2018-08-10T17:50:43.276Z,82.80
2018-08-10T17:53:11.397Z,82.60
2018-08-10T17:55:39.508Z,81.20
2018-08-10T17:58:07.602Z,82.10
2018-08-10T18:00:35.703Z,81.50
2018-08-10T18:03:03.794Z,82.30
2018-08-10T18:05:31.901Z,82.90
2018-08-10T18:08:00.029Z,82.60
2018-08-10T18:10:28.342Z,82.50
2018-08-10T18:12:56.474Z,83.20
2018-08-10T18:15:24.583Z,83.00
2018-08-10T18:17:52.757Z,83.40
2018-08-10T18:20:22.162Z,84.00
2018-08-10T18:22:51.549Z,83.90
2018-08-10T18:25:20.786Z,83.50
2018-08-10T18:27:49.017Z,83.80
2018-08-10T18:30:19.286Z,83.50
2018-08-10T18:32:47.973Z,83.50
2018-08-10T18:35:16.205Z,84.00
2018-08-10T18:37:45.074Z,84.40
2018-08-10T18:40:14.132Z,83.80
2018-08-10T18:42:43.348Z,84.80
2018-08-10T18:45:12.944Z,84.90
2018-08-10T18:47:41.080Z,85.10
2018-08-10T18:50:10.570Z,85.40
2018-08-10T18:52:38.664Z,85.10
2018-08-10T18:55:07.532Z,85.50
2018-08-10T18:57:35.645Z,85.20
2018-08-10T19:00:04.634Z,84.90
2018-08-10T19:02:32.807Z,85.20
2018-08-10T19:05:00.863Z,85.20
2018-08-10T19:07:28.998Z,85.00
2018-08-10T19:09:57.193Z,85.00
2018-08-10T19:12:25.510Z,85.30
2018-08-10T19:14:53.686Z,85.30
2018-08-10T19:17:21.914Z,84.10
2018-08-10T19:19:50.124Z,84.20
2018-08-10T19:22:18.329Z,83.40
2018-08-10T19:24:46.528Z,83.50
2018-08-10T19:27:14.713Z,84.10
2018-08-10T19:29:42.841Z,83.20
2018-08-10T19:32:10.960Z,83.80
2018-08-10T19:34:39.083Z,83.70
2018-08-10T19:37:07.208Z,83.70
2018-08-10T19:39:35.352Z,84.70
2018-08-10T19:42:03.492Z,85.10
2018-08-10T19:44:31.643Z,84.20
2018-08-10T19:46:59.918Z,85.60
2018-08-10T19:49:27.958Z,85.30
2018-08-10T19:51:56.133Z,85.20
2018-08-10T19:54:24.340Z,85.30
2018-08-10T19:56:52.855Z,86.00
2018-08-10T19:59:21.108Z,86.30
2018-08-10T20:01:56.103Z,86.00
2018-08-10T20:04:24.220Z,86.40
2018-08-10T20:06:52.409Z,87.20
2018-08-10T20:09:20.583Z,87.80
2018-08-10T20:11:48.922Z,88.60
2018-08-10T20:14:17.131Z,88.60
2018-08-10T20:16:45.285Z,89.30
2018-08-10T20:19:13.372Z,89.80
2018-08-10T20:21:41.476Z,90.00
2018-08-10T20:24:09.566Z,90.20
2018-08-10T20:26:37.656Z,90.30
2018-08-10T20:29:05.925Z,90.30
2018-08-10T20:31:34.037Z,90.30
2018-08-10T20:34:02.182Z,90.50
2018-08-10T20:36:30.296Z,90.60
2018-08-10T20:38:58.511Z,90.80
2018-08-10T20:41:26.566Z,90.80
2018-08-10T20:43:54.695Z,90.90
2018-08-10T20:46:22.878Z,91.00
2018-08-10T20:48:51.057Z,91.20
2018-08-10T20:51:19.314Z,91.40
2018-08-10T20:53:47.527Z,91.30
2018-08-10T20:56:15.681Z,91.30
2018-08-10T20:58:43.764Z,91.20
2018-08-10T21:01:11.848Z,91.40
2018-08-10T21:03:39.945Z,91.50
2018-08-10T21:06:08.132Z,91.70
2018-08-10T21:08:36.257Z,91.50
2018-08-10T21:11:04.360Z,91.70
2018-08-10T21:13:32.440Z,91.70
2018-08-10T21:16:00.534Z,91.80
2018-08-10T21:18:28.650Z,91.80
2018-08-10T21:20:56.800Z,91.90
2018-08-10T21:23:25.213Z,91.90
2018-08-10T21:26:00.036Z,92.00
2018-08-10T21:28:28.173Z,92.20
2018-08-10T21:30:56.354Z,92.20
2018-08-10T21:33:24.512Z,92.50
2018-08-10T21:35:52.734Z,92.60
2018-08-10T21:38:20.962Z,92.60
2018-08-10T21:40:49.134Z,92.70
2018-08-10T21:43:17.397Z,92.80
2018-08-10T21:45:45.574Z,92.80
2018-08-10T21:48:13.680Z,92.90
2018-08-10T21:50:41.817Z,93.00
2018-08-10T21:53:16.750Z,93.10
2018-08-10T21:55:44.944Z,93.10
2018-08-10T21:58:13.072Z,93.00
2018-08-10T22:00:51.853Z,92.90
2018-08-10T22:03:21.014Z,93.10
2018-08-10T22:05:49.517Z,92.80
2018-08-10T22:08:18.717Z,92.90
2018-08-10T22:10:46.917Z,93.10
2018-08-10T22:13:20.556Z,92.90
2018-08-10T22:15:54.171Z,93.20
2018-08-10T22:18:27.885Z,93.50
2018-08-10T22:20:56.733Z,94.00
2018-08-10T22:23:25.649Z,93.90
2018-08-10T22:25:53.831Z,93.70
2018-08-10T22:28:22.059Z,94.00
2018-08-10T22:30:50.299Z,94.30
2018-08-10T22:33:18.514Z,93.60
2018-08-10T22:35:46.753Z,93.60
2018-08-10T22:38:14.913Z,93.80
2018-08-10T22:40:43.354Z,93.80
2018-08-10T22:43:12.707Z,94.00
2018-08-10T22:45:41.780Z,94.30
2018-08-10T22:48:09.913Z,94.10
2018-08-10T22:50:38.257Z,94.20
2018-08-10T22:53:06.349Z,94.10
2018-08-10T22:55:34.492Z,94.10
2018-08-10T22:58:02.591Z,94.10
2018-08-10T23:00:30.744Z,94.20
2018-08-10T23:02:58.894Z,94.50
2018-08-10T23:05:26.989Z,94.50
2018-08-10T23:07:55.089Z,94.50
2018-08-10T23:10:23.256Z,94.70
2018-08-10T23:12:51.412Z,94.50
2018-08-10T23:15:19.595Z,94.60
2018-08-10T23:17:48.175Z,94.70
2018-08-10T23:20:16.373Z,94.90
2018-08-10T23:22:44.948Z,94.60
2018-08-10T23:25:13.943Z,95.00
2018-08-10T23:27:43.197Z,95.00
2018-08-10T23:30:13.139Z,95.00
2018-08-10T23:32:41.289Z,94.80
2018-08-10T23:35:09.453Z,94.90
2018-08-10T23:37:37.988Z,95.00
2018-08-10T23:40:08.626Z,95.10
2018-08-10T23:42:37.165Z,95.00
2018-08-10T23:45:06.712Z,95.30
2018-08-10T23:47:34.844Z,95.40
2018-08-10T23:50:12.549Z,95.60
2018-08-10T23:52:41.020Z,95.50
2018-08-10T23:55:09.848Z,95.40
2018-08-10T23:57:39.044Z,95.60
